SLI044 MMMX-MMRX
Flight info
| Callsign | SLI044 |
|---|---|
| Flight time | 1h 3m |
| Altitude | 37000 |
| Route | IKLAN2A IKLAN UT139 ONGOB UJ35 URVUT/N0459F380 UJ53 REX |
| Aircraft | E190/M-SDE3GILORVW/S |
Departure
| Time | 2026-05-03 21:20 |
|---|---|
| Airport | Mexico City Benito Juárez International Airport (MMMX) |
Arrival
| Time | 2026-05-03 22:23 |
|---|---|
| Airport | General Lucio Blanco International Airport (MMRX) |
| Time | Latitude | Longitude | Altitude | Speed | Heading |
|---|---|---|---|---|---|
| 2026-05-03 20:58 | 19.42284 | -99.08006 | 7301 ft | 0 kts | 212° |
| 2026-05-03 21:08 | 19.42284 | -99.08005 | 7311 ft | 0 kts | 212° |
| 2026-05-03 21:09 | 19.42291 | -99.08001 | 7301 ft | 2 kts | 212° |
| 2026-05-03 21:10 | 19.42303 | -99.07993 | 7302 ft | 2 kts | 212° |
| 2026-05-03 21:10 | 19.42314 | -99.07985 | 7301 ft | 2 kts | 213° |
| 2026-05-03 21:10 | 19.42325 | -99.07978 | 7301 ft | 2 kts | 217° |
| 2026-05-03 21:10 | 19.42333 | -99.07970 | 7301 ft | 1 kts | 232° |
| 2026-05-03 21:11 | 19.42337 | -99.07965 | 7302 ft | 1 kts | 265° |
| 2026-05-03 21:11 | 19.42337 | -99.07959 | 7302 ft | 1 kts | 299° |
| 2026-05-03 21:11 | 19.42334 | -99.07955 | 7302 ft | 1 kts | 307° |
| 2026-05-03 21:11 | 19.42332 | -99.07952 | 7302 ft | 0 kts | 309° |
| 2026-05-03 21:13 | 19.42335 | -99.07955 | 7302 ft | 1 kts | 309° |
| 2026-05-03 21:13 | 19.42344 | -99.07967 | 7302 ft | 3 kts | 309° |
| 2026-05-03 21:13 | 19.42360 | -99.07988 | 7302 ft | 4 kts | 309° |
| 2026-05-03 21:13 | 19.42377 | -99.08015 | 7301 ft | 5 kts | 288° |
| 2026-05-03 21:14 | 19.42387 | -99.08053 | 7301 ft | 6 kts | 286° |
| 2026-05-03 21:14 | 19.42399 | -99.08095 | 7301 ft | 6 kts | 286° |
| 2026-05-03 21:14 | 19.42409 | -99.08138 | 7301 ft | 6 kts | 275° |
| 2026-05-03 21:14 | 19.42411 | -99.08183 | 7301 ft | 6 kts | 273° |
| 2026-05-03 21:15 | 19.42423 | -99.08226 | 7301 ft | 6 kts | 308° |
| 2026-05-03 21:15 | 19.42454 | -99.08247 | 7301 ft | 5 kts | 332° |
| 2026-05-03 21:15 | 19.42488 | -99.08266 | 7301 ft | 6 kts | 332° |
| 2026-05-03 21:15 | 19.42525 | -99.08288 | 7301 ft | 6 kts | 324° |
| 2026-05-03 21:16 | 19.42553 | -99.08321 | 7301 ft | 6 kts | 306° |
| 2026-05-03 21:16 | 19.42567 | -99.08348 | 7301 ft | 6 kts | 294° |
| 2026-05-03 21:16 | 19.42590 | -99.08408 | 7302 ft | 7 kts | 292° |
| 2026-05-03 21:16 | 19.42610 | -99.08455 | 7301 ft | 7 kts | 294° |
| 2026-05-03 21:17 | 19.42631 | -99.08506 | 7301 ft | 9 kts | 294° |
| 2026-05-03 21:17 | 19.42649 | -99.08548 | 7301 ft | 10 kts | 294° |
| 2026-05-03 21:17 | 19.42672 | -99.08646 | 7303 ft | 11 kts | 277° |
| 2026-05-03 21:17 | 19.42679 | -99.08742 | 7301 ft | 14 kts | 273° |
| 2026-05-03 21:18 | 19.42685 | -99.08845 | 7301 ft | 14 kts | 273° |
| 2026-05-03 21:18 | 19.42690 | -99.08913 | 7301 ft | 14 kts | 274° |
| 2026-05-03 21:18 | 19.42697 | -99.09013 | 7301 ft | 13 kts | 279° |
| 2026-05-03 21:18 | 19.42747 | -99.09048 | 7301 ft | 8 kts | 19° |
| 2026-05-03 21:19 | 19.42789 | -99.08996 | 7302 ft | 16 kts | 59° |
| 2026-05-03 21:19 | 19.42939 | -99.08729 | 7301 ft | 68 kts | 58° |
| 2026-05-03 21:19 | 19.43268 | -99.08142 | 7302 ft | 115 kts | 59° |
| 2026-05-03 21:19 | 19.43751 | -99.07282 | 7302 ft | 156 kts | 59° |
| 2026-05-03 21:20 | 19.44361 | -99.06195 | 7359 ft | 184 kts | 63° |
| 2026-05-03 21:20 | 19.45027 | -99.05000 | 7839 ft | 192 kts | 62° |
| 2026-05-03 21:20 | 19.45700 | -99.03771 | 8719 ft | 195 kts | 61° |
| 2026-05-03 21:20 | 19.46407 | -99.02517 | 9019 ft | 206 kts | 60° |
| 2026-05-03 21:21 | 19.47161 | -99.01201 | 9444 ft | 218 kts | 59° |
| 2026-05-03 21:21 | 19.47960 | -98.99794 | 10071 ft | 229 kts | 59° |
| 2026-05-03 21:21 | 19.48800 | -98.98310 | 10644 ft | 240 kts | 59° |
| 2026-05-03 21:21 | 19.49668 | -98.96761 | 11232 ft | 248 kts | 59° |
| 2026-05-03 21:22 | 19.50579 | -98.95190 | 11911 ft | 251 kts | 54° |
| 2026-05-03 21:22 | 19.51797 | -98.93842 | 12610 ft | 257 kts | 35° |
| 2026-05-03 21:22 | 19.53364 | -98.92946 | 13456 ft | 256 kts | 17° |
| 2026-05-03 21:22 | 19.55101 | -98.92542 | 14257 ft | 257 kts | 5° |
| 2026-05-03 21:23 | 19.56887 | -98.92370 | 15082 ft | 257 kts | 2° |
| 2026-05-03 21:23 | 19.58665 | -98.92229 | 15983 ft | 256 kts | 3° |
| 2026-05-03 21:23 | 19.60443 | -98.92075 | 16828 ft | 256 kts | 3° |
| 2026-05-03 21:23 | 19.62221 | -98.91906 | 17623 ft | 257 kts | 3° |
| 2026-05-03 21:24 | 19.64020 | -98.91733 | 18335 ft | 261 kts | 3° |
| 2026-05-03 21:24 | 19.65880 | -98.91571 | 18672 ft | 281 kts | 2° |
| 2026-05-03 21:24 | 19.67917 | -98.91460 | 18850 ft | 305 kts | 0° |
| 2026-05-03 21:24 | 19.70120 | -98.91371 | 19059 ft | 328 kts | 0° |
| 2026-05-03 21:25 | 19.72480 | -98.91278 | 19249 ft | 351 kts | 0° |
| 2026-05-03 21:25 | 19.74966 | -98.91177 | 19698 ft | 362 kts | 1° |
| 2026-05-03 21:25 | 19.77493 | -98.91043 | 20419 ft | 364 kts | 1° |
| 2026-05-03 21:25 | 19.80017 | -98.90888 | 21221 ft | 363 kts | 2° |
| 2026-05-03 21:26 | 19.82536 | -98.90732 | 21981 ft | 363 kts | 1° |
| 2026-05-03 21:26 | 19.85064 | -98.90584 | 22662 ft | 365 kts | 1° |
| 2026-05-03 21:26 | 19.87612 | -98.90440 | 23331 ft | 367 kts | 1° |
| 2026-05-03 21:26 | 19.90174 | -98.90310 | 23928 ft | 370 kts | 0° |
| 2026-05-03 21:27 | 19.92759 | -98.90194 | 24392 ft | 373 kts | 0° |
| 2026-05-03 21:27 | 19.95365 | -98.90090 | 24844 ft | 377 kts | 360° |
| 2026-05-03 21:27 | 19.97998 | -98.89995 | 25264 ft | 380 kts | 359° |
| 2026-05-03 21:27 | 20.00653 | -98.89905 | 25672 ft | 384 kts | 359° |
| 2026-05-03 21:28 | 20.03331 | -98.89821 | 26089 ft | 387 kts | 359° |
| 2026-05-03 21:28 | 20.06028 | -98.89741 | 26496 ft | 390 kts | 359° |
| 2026-05-03 21:28 | 20.08751 | -98.89665 | 26914 ft | 393 kts | 358° |
| 2026-05-03 21:28 | 20.11491 | -98.89592 | 27371 ft | 396 kts | 358° |
| 2026-05-03 21:29 | 20.14253 | -98.89525 | 27772 ft | 399 kts | 358° |
| 2026-05-03 21:29 | 20.17040 | -98.89464 | 28192 ft | 402 kts | 358° |
| 2026-05-03 21:29 | 20.19846 | -98.89406 | 28609 ft | 405 kts | 358° |
| 2026-05-03 21:29 | 20.22676 | -98.89352 | 28991 ft | 408 kts | 357° |
| 2026-05-03 21:30 | 20.25525 | -98.89303 | 29364 ft | 411 kts | 357° |
| 2026-05-03 21:30 | 20.28354 | -98.89261 | 29723 ft | 414 kts | 357° |
| 2026-05-03 21:30 | 20.31240 | -98.89220 | 30063 ft | 416 kts | 357° |
| 2026-05-03 21:30 | 20.34149 | -98.89183 | 30370 ft | 418 kts | 357° |
| 2026-05-03 21:31 | 20.37097 | -98.89148 | 30708 ft | 420 kts | 356° |
| 2026-05-03 21:31 | 20.40025 | -98.89118 | 30972 ft | 422 kts | 357° |
| 2026-05-03 21:31 | 20.42923 | -98.89091 | 31277 ft | 423 kts | 358° |
| 2026-05-03 21:31 | 20.45872 | -98.88753 | 31552 ft | 428 kts | 4° |
| 2026-05-03 21:32 | 20.48818 | -98.88248 | 31862 ft | 430 kts | 5° |
| 2026-05-03 21:32 | 20.51771 | -98.87719 | 32174 ft | 431 kts | 5° |
| 2026-05-03 21:32 | 20.54738 | -98.87193 | 32447 ft | 432 kts | 5° |
| 2026-05-03 21:32 | 20.57691 | -98.86677 | 32955 ft | 428 kts | 5° |
| 2026-05-03 21:33 | 20.60628 | -98.86164 | 33347 ft | 427 kts | 5° |
| 2026-05-03 21:33 | 20.63553 | -98.85655 | 33792 ft | 425 kts | 5° |
| 2026-05-03 21:33 | 20.66470 | -98.85149 | 34210 ft | 423 kts | 5° |
| 2026-05-03 21:33 | 20.69374 | -98.84645 | 34453 ft | 424 kts | 5° |
| 2026-05-03 21:34 | 20.72300 | -98.84136 | 34687 ft | 426 kts | 5° |
| 2026-05-03 21:34 | 20.75228 | -98.83627 | 34942 ft | 427 kts | 5° |
| 2026-05-03 21:34 | 20.78162 | -98.83116 | 35192 ft | 428 kts | 5° |
| 2026-05-03 21:34 | 20.81095 | -98.82604 | 35541 ft | 424 kts | 4° |
| 2026-05-03 21:35 | 20.83981 | -98.82100 | 36055 ft | 418 kts | 4° |
| 2026-05-03 21:35 | 20.86855 | -98.81599 | 36319 ft | 419 kts | 5° |
| 2026-05-03 21:35 | 20.89743 | -98.81097 | 36508 ft | 420 kts | 5° |
| 2026-05-03 21:35 | 20.92628 | -98.80594 | 36672 ft | 421 kts | 4° |
| 2026-05-03 21:36 | 20.95524 | -98.80089 | 36847 ft | 422 kts | 5° |
| 2026-05-03 21:36 | 20.98425 | -98.79580 | 37069 ft | 422 kts | 4° |
| 2026-05-03 21:36 | 21.01314 | -98.79073 | 37261 ft | 423 kts | 4° |
| 2026-05-03 21:36 | 21.04220 | -98.78566 | 37263 ft | 425 kts | 4° |
| 2026-05-03 21:37 | 21.10150 | -98.77530 | 37121 ft | 439 kts | 5° |
| 2026-05-03 21:37 | 21.16237 | -98.76464 | 37139 ft | 447 kts | 5° |
| 2026-05-03 21:38 | 21.22449 | -98.75376 | 37119 ft | 457 kts | 5° |
| 2026-05-03 21:38 | 21.28773 | -98.74265 | 37116 ft | 465 kts | 5° |
| 2026-05-03 21:39 | 21.35190 | -98.73135 | 37119 ft | 468 kts | 5° |
| 2026-05-03 21:39 | 21.41625 | -98.72002 | 37122 ft | 468 kts | 4° |
| 2026-05-03 21:40 | 21.48054 | -98.70871 | 37113 ft | 468 kts | 4° |
| 2026-05-03 21:40 | 21.54472 | -98.69740 | 37104 ft | 468 kts | 4° |
| 2026-05-03 21:41 | 21.60891 | -98.68609 | 37110 ft | 468 kts | 4° |
| 2026-05-03 21:41 | 21.67317 | -98.67475 | 37106 ft | 468 kts | 4° |
| 2026-05-03 21:42 | 21.73737 | -98.66342 | 37108 ft | 468 kts | 4° |
| 2026-05-03 21:42 | 21.80160 | -98.65207 | 37100 ft | 467 kts | 4° |
| 2026-05-03 21:43 | 21.86532 | -98.64079 | 37104 ft | 467 kts | 4° |
| 2026-05-03 21:43 | 21.92947 | -98.62943 | 37099 ft | 467 kts | 4° |
| 2026-05-03 21:44 | 21.99356 | -98.61807 | 37100 ft | 467 kts | 4° |
| 2026-05-03 21:44 | 22.05778 | -98.60668 | 37101 ft | 468 kts | 4° |
| 2026-05-03 21:45 | 22.12193 | -98.59529 | 37098 ft | 467 kts | 4° |
| 2026-05-03 21:45 | 22.18612 | -98.58388 | 37098 ft | 468 kts | 4° |
| 2026-05-03 21:46 | 22.25034 | -98.57246 | 37093 ft | 467 kts | 4° |
| 2026-05-03 21:46 | 22.31450 | -98.56104 | 37093 ft | 467 kts | 4° |
| 2026-05-03 21:47 | 22.37868 | -98.54960 | 37092 ft | 468 kts | 4° |
| 2026-05-03 21:47 | 22.44289 | -98.53814 | 37096 ft | 467 kts | 4° |
| 2026-05-03 21:48 | 22.50703 | -98.52669 | 37098 ft | 467 kts | 4° |
| 2026-05-03 21:48 | 22.57123 | -98.51521 | 37089 ft | 468 kts | 4° |
| 2026-05-03 21:49 | 22.63541 | -98.50373 | 37095 ft | 467 kts | 4° |
| 2026-05-03 21:49 | 22.69960 | -98.49225 | 37088 ft | 467 kts | 4° |
| 2026-05-03 21:50 | 22.76374 | -98.48075 | 37090 ft | 467 kts | 4° |
| 2026-05-03 21:50 | 22.82791 | -98.46924 | 37091 ft | 467 kts | 3° |
| 2026-05-03 21:51 | 22.89202 | -98.45773 | 37099 ft | 467 kts | 3° |
| 2026-05-03 21:51 | 22.95607 | -98.44621 | 37102 ft | 466 kts | 3° |
| 2026-05-03 21:52 | 23.02005 | -98.43470 | 37099 ft | 466 kts | 3° |
| 2026-05-03 21:52 | 23.08404 | -98.42317 | 37110 ft | 466 kts | 3° |
| 2026-05-03 21:53 | 23.14786 | -98.41166 | 37106 ft | 465 kts | 3° |
| 2026-05-03 21:53 | 23.21156 | -98.40016 | 37106 ft | 463 kts | 3° |
| 2026-05-03 21:54 | 23.27519 | -98.38818 | 37116 ft | 468 kts | 8° |
| 2026-05-03 21:54 | 23.33777 | -98.36791 | 37112 ft | 470 kts | 11° |
| 2026-05-03 21:55 | 23.40010 | -98.34648 | 37101 ft | 469 kts | 11° |
| 2026-05-03 21:55 | 23.46243 | -98.32525 | 37098 ft | 469 kts | 11° |
| 2026-05-03 21:56 | 23.52469 | -98.30404 | 37107 ft | 469 kts | 11° |
| 2026-05-03 21:56 | 23.58645 | -98.28302 | 37097 ft | 468 kts | 10° |
| 2026-05-03 21:57 | 23.64861 | -98.26183 | 37099 ft | 467 kts | 10° |
| 2026-05-03 21:57 | 23.71063 | -98.24065 | 37106 ft | 467 kts | 10° |
| 2026-05-03 21:58 | 23.77170 | -98.21972 | 37071 ft | 453 kts | 10° |
| 2026-05-03 21:58 | 23.83194 | -98.19918 | 37102 ft | 455 kts | 10° |
| 2026-05-03 21:59 | 23.89230 | -98.17853 | 37095 ft | 454 kts | 10° |
| 2026-05-03 21:59 | 23.95247 | -98.15791 | 37098 ft | 453 kts | 10° |
| 2026-05-03 22:00 | 24.01259 | -98.13729 | 37088 ft | 452 kts | 9° |
| 2026-05-03 22:00 | 24.07259 | -98.11669 | 37091 ft | 452 kts | 9° |
| 2026-05-03 22:01 | 24.13241 | -98.09612 | 37088 ft | 447 kts | 9° |
| 2026-05-03 22:01 | 24.19192 | -98.07567 | 37103 ft | 450 kts | 9° |
| 2026-05-03 22:02 | 24.25181 | -98.05701 | 36803 ft | 436 kts | 359° |
| 2026-05-03 22:02 | 24.28105 | -98.05719 | 36573 ft | 408 kts | 348° |
| 2026-05-03 22:02 | 24.30902 | -98.05965 | 36010 ft | 402 kts | 348° |
| 2026-05-03 22:03 | 24.33671 | -98.06222 | 35523 ft | 395 kts | 347° |
| 2026-05-03 22:03 | 24.36394 | -98.06486 | 34943 ft | 391 kts | 347° |
| 2026-05-03 22:03 | 24.38178 | -98.06661 | 34632 ft | 387 kts | 347° |
| 2026-05-03 22:03 | 24.40845 | -98.06928 | 34081 ft | 383 kts | 347° |
| 2026-05-03 22:04 | 24.43482 | -98.07192 | 33599 ft | 376 kts | 347° |
| 2026-05-03 22:04 | 24.46069 | -98.07452 | 33080 ft | 372 kts | 347° |
| 2026-05-03 22:04 | 24.48646 | -98.07730 | 32633 ft | 373 kts | 347° |
| 2026-05-03 22:04 | 24.51267 | -98.08017 | 32105 ft | 383 kts | 347° |
| 2026-05-03 22:05 | 24.53945 | -98.08306 | 31604 ft | 390 kts | 348° |
| 2026-05-03 22:05 | 24.56668 | -98.08593 | 31057 ft | 395 kts | 348° |
| 2026-05-03 22:05 | 24.59405 | -98.08878 | 30544 ft | 396 kts | 348° |
| 2026-05-03 22:05 | 24.62156 | -98.09164 | 29992 ft | 398 kts | 348° |
| 2026-05-03 22:06 | 24.64915 | -98.09449 | 29501 ft | 398 kts | 348° |
| 2026-05-03 22:06 | 24.67683 | -98.09734 | 28938 ft | 401 kts | 348° |
| 2026-05-03 22:06 | 24.70461 | -98.10021 | 28423 ft | 402 kts | 348° |
| 2026-05-03 22:06 | 24.73255 | -98.10308 | 27877 ft | 404 kts | 348° |
| 2026-05-03 22:07 | 24.76048 | -98.10593 | 27354 ft | 402 kts | 348° |
| 2026-05-03 22:07 | 24.78825 | -98.10874 | 26801 ft | 399 kts | 348° |
| 2026-05-03 22:07 | 24.81573 | -98.11153 | 26286 ft | 395 kts | 348° |
| 2026-05-03 22:07 | 24.84292 | -98.11428 | 25756 ft | 391 kts | 348° |
| 2026-05-03 22:08 | 24.86987 | -98.11700 | 25254 ft | 388 kts | 348° |
| 2026-05-03 22:08 | 24.89667 | -98.11971 | 24741 ft | 385 kts | 348° |
| 2026-05-03 22:08 | 24.92325 | -98.12239 | 24228 ft | 382 kts | 348° |
| 2026-05-03 22:08 | 24.94967 | -98.12504 | 23727 ft | 380 kts | 348° |
| 2026-05-03 22:09 | 24.97591 | -98.12760 | 23200 ft | 376 kts | 349° |
| 2026-05-03 22:09 | 25.00184 | -98.13011 | 22712 ft | 374 kts | 349° |
| 2026-05-03 22:09 | 25.02774 | -98.13265 | 22229 ft | 372 kts | 349° |
| 2026-05-03 22:10 | 25.07920 | -98.13772 | 21236 ft | 369 kts | 349° |
| 2026-05-03 22:10 | 25.10473 | -98.14023 | 20750 ft | 367 kts | 349° |
| 2026-05-03 22:10 | 25.13012 | -98.14272 | 20268 ft | 365 kts | 349° |
| 2026-05-03 22:10 | 25.15539 | -98.14520 | 19780 ft | 364 kts | 349° |
| 2026-05-03 22:11 | 25.18052 | -98.14768 | 19300 ft | 362 kts | 349° |
| 2026-05-03 22:11 | 25.20520 | -98.15011 | 18824 ft | 360 kts | 349° |
| 2026-05-03 22:11 | 25.23012 | -98.15256 | 18343 ft | 359 kts | 350° |
| 2026-05-03 22:11 | 25.25483 | -98.15501 | 17872 ft | 355 kts | 350° |
| 2026-05-03 22:12 | 25.27934 | -98.15750 | 17289 ft | 355 kts | 350° |
| 2026-05-03 22:12 | 25.30386 | -98.16000 | 16813 ft | 350 kts | 350° |
| 2026-05-03 22:12 | 25.32799 | -98.16244 | 16337 ft | 348 kts | 350° |
| 2026-05-03 22:12 | 25.35201 | -98.16488 | 15886 ft | 345 kts | 351° |
| 2026-05-03 22:13 | 25.37590 | -98.16729 | 15426 ft | 344 kts | 351° |
| 2026-05-03 22:13 | 25.39969 | -98.16968 | 14982 ft | 342 kts | 351° |
| 2026-05-03 22:13 | 25.42323 | -98.17207 | 14517 ft | 337 kts | 351° |
| 2026-05-03 22:13 | 25.44639 | -98.17439 | 14070 ft | 331 kts | 351° |
| 2026-05-03 22:14 | 25.46914 | -98.17670 | 13614 ft | 325 kts | 352° |
| 2026-05-03 22:14 | 25.49140 | -98.17895 | 13214 ft | 318 kts | 352° |
| 2026-05-03 22:14 | 25.51324 | -98.18118 | 12789 ft | 312 kts | 352° |
| 2026-05-03 22:14 | 25.53471 | -98.18336 | 12375 ft | 308 kts | 352° |
| 2026-05-03 22:15 | 25.55589 | -98.18552 | 11969 ft | 303 kts | 352° |
| 2026-05-03 22:15 | 25.57678 | -98.18764 | 11568 ft | 300 kts | 352° |
| 2026-05-03 22:15 | 25.59746 | -98.18975 | 11179 ft | 297 kts | 352° |
| 2026-05-03 22:15 | 25.61801 | -98.19182 | 10706 ft | 297 kts | 353° |
| 2026-05-03 22:16 | 25.63912 | -98.18987 | 9716 ft | 310 kts | 10° |
| 2026-05-03 22:16 | 25.66002 | -98.18358 | 8587 ft | 313 kts | 16° |
| 2026-05-03 22:16 | 25.68087 | -98.17621 | 7412 ft | 316 kts | 17° |
| 2026-05-03 22:16 | 25.70194 | -98.16893 | 6162 ft | 319 kts | 17° |
| 2026-05-03 22:17 | 25.72284 | -98.16216 | 5570 ft | 300 kts | 17° |
| 2026-05-03 22:17 | 25.74210 | -98.15619 | 5201 ft | 276 kts | 17° |
| 2026-05-03 22:17 | 25.75995 | -98.15073 | 4857 ft | 257 kts | 17° |
| 2026-05-03 22:17 | 25.77667 | -98.14562 | 4533 ft | 242 kts | 17° |
| 2026-05-03 22:18 | 25.79242 | -98.14077 | 4212 ft | 228 kts | 17° |
| 2026-05-03 22:18 | 25.80731 | -98.13619 | 3948 ft | 218 kts | 18° |
| 2026-05-03 22:18 | 25.82173 | -98.13173 | 3696 ft | 211 kts | 18° |
| 2026-05-03 22:18 | 25.83570 | -98.12743 | 3495 ft | 205 kts | 18° |
| 2026-05-03 22:19 | 25.84909 | -98.12333 | 3299 ft | 193 kts | 18° |
| 2026-05-03 22:19 | 25.86192 | -98.11943 | 3012 ft | 190 kts | 18° |
| 2026-05-03 22:19 | 25.87499 | -98.11737 | 2708 ft | 193 kts | 360° |
| 2026-05-03 22:19 | 25.88775 | -98.12126 | 2695 ft | 183 kts | 337° |
| 2026-05-03 22:20 | 25.89801 | -98.12860 | 3468 ft | 184 kts | 325° |
| 2026-05-03 22:20 | 25.90862 | -98.13830 | 2992 ft | 208 kts | 323° |
| 2026-05-03 22:20 | 25.92005 | -98.14834 | 2290 ft | 206 kts | 324° |
| 2026-05-03 22:20 | 25.93064 | -98.15777 | 2003 ft | 180 kts | 323° |
| 2026-05-03 22:21 | 25.93961 | -98.16598 | 1709 ft | 156 kts | 324° |
| 2026-05-03 22:21 | 25.94758 | -98.17312 | 1507 ft | 139 kts | 326° |
| 2026-05-03 22:21 | 25.95478 | -98.17956 | 1322 ft | 126 kts | 324° |
| 2026-05-03 22:21 | 25.96145 | -98.18562 | 1151 ft | 121 kts | 323° |
| 2026-05-03 22:22 | 25.96822 | -98.19179 | 1049 ft | 131 kts | 327° |
| 2026-05-03 22:22 | 25.97543 | -98.19818 | 834 ft | 131 kts | 322° |
| 2026-05-03 22:22 | 25.98221 | -98.20477 | 658 ft | 134 kts | 320° |
| 2026-05-03 22:22 | 25.98968 | -98.21128 | 523 ft | 136 kts | 319° |
| 2026-05-03 22:23 | 25.99700 | -98.21781 | 315 ft | 134 kts | 318° |
| 2026-05-03 22:23 | 26.00419 | -98.22429 | 161 ft | 128 kts | 323° |
| 2026-05-03 22:23 | 26.01019 | -98.22966 | 145 ft | 89 kts | 320° |
| 2026-05-03 22:23 | 26.01386 | -98.23296 | 148 ft | 47 kts | 320° |
| 2026-05-03 22:24 | 26.01500 | -98.23401 | 147 ft | 13 kts | 325° |
| 2026-05-03 22:24 | 26.01518 | -98.23392 | 147 ft | 3 kts | 56° |
| 2026-05-03 22:24 | 26.01504 | -98.23372 | 147 ft | 4 kts | 165° |
| 2026-05-03 22:24 | 26.01446 | -98.23346 | 148 ft | 13 kts | 146° |
| 2026-05-03 22:25 | 26.01363 | -98.23271 | 148 ft | 18 kts | 141° |
| 2026-05-03 22:25 | 26.01261 | -98.23179 | 146 ft | 20 kts | 141° |
| 2026-05-03 22:25 | 26.01155 | -98.23082 | 146 ft | 20 kts | 140° |
| 2026-05-03 22:25 | 26.01048 | -98.22986 | 145 ft | 19 kts | 134° |
| 2026-05-03 22:26 | 26.01054 | -98.22896 | 146 ft | 11 kts | 51° |
| 2026-05-03 22:26 | 26.01103 | -98.22828 | 146 ft | 12 kts | 51° |
| 2026-05-03 22:26 | 26.01122 | -98.22778 | 147 ft | 7 kts | 53° |
| 2026-05-03 22:26 | 26.01138 | -98.22757 | 147 ft | 0 kts | 50° |